createdAt,value
2018-04-28T00:08:30.757Z,999.9
2018-04-28T00:18:30.739Z,999.86
2018-04-28T00:28:30.726Z,999.8
2018-04-28T00:38:30.749Z,999.87
2018-04-28T00:48:30.716Z,999.84
2018-04-28T00:58:30.745Z,999.85
2018-04-28T01:08:30.751Z,999.85
2018-04-28T01:18:30.713Z,1000
2018-04-28T01:28:30.729Z,1000.07
2018-04-28T01:38:30.713Z,1000.07
2018-04-28T01:48:30.736Z,1000.15
2018-04-28T01:58:30.727Z,1000.24
2018-04-28T02:08:30.744Z,1000.24
2018-04-28T02:18:30.747Z,1000.45
2018-04-28T02:28:30.738Z,1000.53
2018-04-28T02:38:30.775Z,1000.6
2018-04-28T02:48:30.759Z,1000.74
2018-04-28T02:58:30.765Z,1000.68
2018-04-28T03:08:30.783Z,1000.82
2018-04-28T03:18:30.789Z,1000.8
2018-04-28T03:28:30.829Z,1000.77
2018-04-28T03:38:30.798Z,1000.81
2018-04-28T03:48:30.811Z,1000.82
2018-04-28T03:58:31.893Z,1000.87
2018-04-28T04:08:31.863Z,1000.85
2018-04-28T04:18:30.848Z,1000.93
2018-04-28T04:28:30.862Z,1001.02
2018-04-28T04:38:30.879Z,1001.14
2018-04-28T04:48:30.866Z,1001.26
2018-04-28T04:58:30.884Z,1001.32
2018-04-28T05:08:30.903Z,1001.5
2018-04-28T05:18:30.896Z,1001.63
2018-04-28T05:28:30.913Z,1001.8
2018-04-28T05:38:30.921Z,1001.84
2018-04-28T05:48:30.923Z,1001.98
2018-04-28T05:58:30.948Z,1002.01
2018-04-28T06:08:30.943Z,1002.13
2018-04-28T06:18:31.358Z,1002.24
2018-04-28T06:28:30.970Z,1002.33
2018-04-28T06:38:30.985Z,1002.44
2018-04-28T06:48:31.003Z,1002.51
2018-04-28T06:58:31.047Z,1002.51
2018-04-28T07:08:31.002Z,1002.56
2018-04-28T07:18:30.995Z,1002.62
2018-04-28T07:48:31.023Z,1002.8
2018-04-28T07:58:30.995Z,1002.89
2018-04-28T08:28:31.004Z,1003.14
2018-04-28T08:48:31.026Z,1003.27
2018-04-28T09:28:31.053Z,1003.35
2018-04-28T09:38:31.074Z,1003.32
2018-04-28T09:48:31.027Z,1003.41
2018-04-28T09:58:31.030Z,1003.42
2018-04-28T10:18:31.710Z,1003.55
2018-04-28T10:28:31.049Z,1003.49
2018-04-28T10:38:31.132Z,1003.51
2018-04-28T10:48:31.136Z,1003.54
2018-04-28T10:58:31.029Z,1003.5
2018-04-28T11:08:31.048Z,1003.62
2018-04-28T11:18:31.032Z,1003.7
2018-04-28T11:28:31.040Z,1003.72
2018-04-28T11:38:31.108Z,1003.77
2018-04-28T11:48:31.042Z,1003.67
2018-04-28T11:58:31.105Z,1003.6
2018-04-28T12:08:31.041Z,1003.71
2018-04-28T12:18:31.062Z,1003.67
2018-04-28T12:28:31.049Z,1003.7
2018-04-28T12:48:31.057Z,1003.66
2018-04-28T12:58:31.052Z,1003.6
2018-04-28T13:08:31.414Z,1003.55
2018-04-28T13:18:31.241Z,1003.55
2018-04-28T13:28:31.050Z,1003.55
2018-04-28T13:38:31.082Z,1003.64
2018-04-28T13:48:31.063Z,1003.52
2018-04-28T13:58:31.211Z,1003.42
2018-04-28T14:38:31.080Z,1003.38
2018-04-28T14:48:31.073Z,1003.32
2018-04-28T14:58:31.056Z,1003.18
2018-04-28T15:08:31.090Z,1003.21
2018-04-28T15:28:31.099Z,1003.36
2018-04-28T15:38:31.060Z,1003.35
2018-04-28T15:48:31.092Z,1003.27
2018-04-28T16:08:31.089Z,1003.46
2018-04-28T16:18:31.089Z,1003.34
2018-04-28T16:28:31.080Z,1003.36
2018-04-28T16:48:31.075Z,1003.43
2018-04-28T16:58:31.092Z,1003.4
2018-04-28T17:28:31.091Z,1003.48
2018-04-28T17:38:31.076Z,1003.47
2018-04-28T18:08:31.094Z,1003.43
2018-04-28T18:18:31.114Z,1003.31
2018-04-28T18:28:31.081Z,1003.25
2018-04-28T18:58:31.082Z,1003.55
2018-04-28T19:08:34.723Z,1003.68
2018-04-28T19:58:31.069Z,1003.87
2018-04-28T20:38:31.125Z,1004.04
2018-04-28T20:48:31.125Z,1003.99
2018-04-28T21:38:31.174Z,1004.33
2018-04-28T21:48:31.186Z,1004.35
2018-04-28T21:58:31.186Z,1004.25
2018-04-28T22:08:31.343Z,1004.21
2018-04-28T22:28:31.197Z,1004.09
2018-04-28T22:38:31.220Z,1004.12
2018-04-28T22:58:31.239Z,1004.04
2018-04-28T23:08:32.323Z,1003.92
2018-04-28T23:28:31.341Z,1003.84
2018-04-28T23:38:31.278Z,1003.83
